sensor_id;sensor_type;location;lat;lon;timestamp;temperature;humidity
27162;DHT22;54464;50.558;9.704;2022-08-01T00:01:54;20.80;99.90
27162;DHT22;54464;50.558;9.704;2022-08-01T00:04:20;20.80;99.90
27162;DHT22;54464;50.558;9.704;2022-08-01T00:06:45;20.80;99.90
27162;DHT22;54464;50.558;9.704;2022-08-01T00:09:11;20.80;99.90
27162;DHT22;54464;50.558;9.704;2022-08-01T00:11:37;20.80;99.90
27162;DHT22;54464;50.558;9.704;2022-08-01T00:14:03;20.70;99.90
27162;DHT22;54464;50.558;9.704;2022-08-01T00:16:29;20.70;99.90
27162;DHT22;54464;50.558;9.704;2022-08-01T00:18:55;20.70;99.90
27162;DHT22;54464;50.558;9.704;2022-08-01T00:21:21;20.70;99.90
27162;DHT22;54464;50.558;9.704;2022-08-01T00:23:47;20.70;99.90
27162;DHT22;54464;50.558;9.704;2022-08-01T00:26:13;20.70;99.90
27162;DHT22;54464;50.558;9.704;2022-08-01T00:28:39;20.60;99.90
27162;DHT22;54464;50.558;9.704;2022-08-01T00:31:05;20.60;99.90
27162;DHT22;54464;50.558;9.704;2022-08-01T00:33:31;20.60;99.90
27162;DHT22;54464;50.558;9.704;2022-08-01T00:35:57;20.50;99.90
27162;DHT22;54464;50.558;9.704;2022-08-01T00:38:22;20.50;99.90
27162;DHT22;54464;50.558;9.704;2022-08-01T00:40:48;20.50;99.90
27162;DHT22;54464;50.558;9.704;2022-08-01T00:43:14;20.40;99.90
27162;DHT22;54464;50.558;9.704;2022-08-01T00:45:40;20.40;99.90
27162;DHT22;54464;50.558;9.704;2022-08-01T00:48:06;20.40;99.90
27162;DHT22;54464;50.558;9.704;2022-08-01T00:50:33;20.40;99.90
27162;DHT22;54464;50.558;9.704;2022-08-01T00:52:59;20.30;99.90
27162;DHT22;54464;50.558;9.704;2022-08-01T00:55:27;20.30;99.90
27162;DHT22;54464;50.558;9.704;2022-08-01T00:57:52;20.30;99.90
27162;DHT22;54464;50.558;9.704;2022-08-01T01:00:19;20.30;99.90
27162;DHT22;54464;50.558;9.704;2022-08-01T01:02:45;20.30;99.90
27162;DHT22;54464;50.558;9.704;2022-08-01T01:05:11;20.30;99.90
27162;DHT22;54464;50.558;9.704;2022-08-01T01:10:43;20.20;99.90
27162;DHT22;54464;50.558;9.704;2022-08-01T01:13:18;20.20;99.90
27162;DHT22;54464;50.558;9.704;2022-08-01T01:15:59;20.20;99.90
27162;DHT22;54464;50.558;9.704;2022-08-01T01:18:35;20.20;99.90
27162;DHT22;54464;50.558;9.704;2022-08-01T01:29:21;20.20;99.90
27162;DHT22;54464;50.558;9.704;2022-08-01T01:32:02;20.20;99.90
27162;DHT22;54464;50.558;9.704;2022-08-01T01:34:33;20.10;99.90
27162;DHT22;54464;50.558;9.704;2022-08-01T01:37:01;20.10;99.90
27162;DHT22;54464;50.558;9.704;2022-08-01T01:39:29;20.10;99.90
27162;DHT22;54464;50.558;9.704;2022-08-01T01:41:58;20.00;99.90
27162;DHT22;54464;50.558;9.704;2022-08-01T01:44:25;20.10;99.90
27162;DHT22;54464;50.558;9.704;2022-08-01T01:46:52;20.10;99.90
27162;DHT22;54464;50.558;9.704;2022-08-01T01:49:28;20.00;99.90
27162;DHT22;54464;50.558;9.704;2022-08-01T01:51:56;20.00;99.90
27162;DHT22;54464;50.558;9.704;2022-08-01T01:54:25;20.00;99.90
27162;DHT22;54464;50.558;9.704;2022-08-01T01:56:56;19.90;99.90
27162;DHT22;54464;50.558;9.704;2022-08-01T01:59:26;19.90;99.90
27162;DHT22;54464;50.558;9.704;2022-08-01T02:01:56;19.80;99.90
27162;DHT22;54464;50.558;9.704;2022-08-01T02:04:24;19.80;99.90
27162;DHT22;54464;50.558;9.704;2022-08-01T02:06:51;19.70;99.90
27162;DHT22;54464;50.558;9.704;2022-08-01T02:09:19;19.70;99.90
27162;DHT22;54464;50.558;9.704;2022-08-01T02:11:48;19.60;99.90
27162;DHT22;54464;50.558;9.704;2022-08-01T02:14:15;19.60;99.90
27162;DHT22;54464;50.558;9.704;2022-08-01T02:16:45;19.50;99.90
27162;DHT22;54464;50.558;9.704;2022-08-01T02:19:12;19.50;99.90
27162;DHT22;54464;50.558;9.704;2022-08-01T02:21:48;19.50;99.90
27162;DHT22;54464;50.558;9.704;2022-08-01T02:26:51;19.40;99.90
27162;DHT22;54464;50.558;9.704;2022-08-01T02:29:32;19.30;99.90
27162;DHT22;54464;50.558;9.704;2022-08-01T02:31:59;19.30;99.90
27162;DHT22;54464;50.558;9.704;2022-08-01T02:34:28;19.20;99.90
27162;DHT22;54464;50.558;9.704;2022-08-01T02:36:59;19.20;99.90
27162;DHT22;54464;50.558;9.704;2022-08-01T02:39:26;19.20;99.90
27162;DHT22;54464;50.558;9.704;2022-08-01T02:41:57;19.20;99.90
27162;DHT22;54464;50.558;9.704;2022-08-01T02:44:28;19.10;99.90
27162;DHT22;54464;50.558;9.704;2022-08-01T02:47:01;19.00;99.90
27162;DHT22;54464;50.558;9.704;2022-08-01T02:49:35;19.00;99.90
27162;DHT22;54464;50.558;9.704;2022-08-01T02:52:05;18.90;99.90
27162;DHT22;54464;50.558;9.704;2022-08-01T02:54:33;19.00;99.90
27162;DHT22;54464;50.558;9.704;2022-08-01T02:57:00;18.90;99.90
27162;DHT22;54464;50.558;9.704;2022-08-01T02:59:27;18.90;99.90
27162;DHT22;54464;50.558;9.704;2022-08-01T03:01:57;18.80;99.90
27162;DHT22;54464;50.558;9.704;2022-08-01T03:04:24;18.80;99.90
27162;DHT22;54464;50.558;9.704;2022-08-01T03:06:53;18.80;99.90
27162;DHT22;54464;50.558;9.704;2022-08-01T03:09:20;18.80;99.90
27162;DHT22;54464;50.558;9.704;2022-08-01T03:11:48;18.80;99.90
27162;DHT22;54464;50.558;9.704;2022-08-01T03:14:16;18.80;99.90
27162;DHT22;54464;50.558;9.704;2022-08-01T03:16:44;18.80;99.90
27162;DHT22;54464;50.558;9.704;2022-08-01T03:19:11;18.80;99.90
27162;DHT22;54464;50.558;9.704;2022-08-01T03:21:39;18.80;99.90
27162;DHT22;54464;50.558;9.704;2022-08-01T03:24:07;18.80;99.90
27162;DHT22;54464;50.558;9.704;2022-08-01T03:26:36;18.80;99.90
27162;DHT22;54464;50.558;9.704;2022-08-01T03:29:10;18.80;99.90
27162;DHT22;54464;50.558;9.704;2022-08-01T03:31:38;18.80;99.90
27162;DHT22;54464;50.558;9.704;2022-08-01T03:34:08;18.80;99.90
27162;DHT22;54464;50.558;9.704;2022-08-01T03:36:39;18.70;99.90
27162;DHT22;54464;50.558;9.704;2022-08-01T03:39:11;18.70;99.90
27162;DHT22;54464;50.558;9.704;2022-08-01T03:41:41;18.70;99.90
27162;DHT22;54464;50.558;9.704;2022-08-01T03:44:13;18.70;99.90
27162;DHT22;54464;50.558;9.704;2022-08-01T03:46:46;18.80;99.90
27162;DHT22;54464;50.558;9.704;2022-08-01T03:49:18;18.80;99.90
27162;DHT22;54464;50.558;9.704;2022-08-01T03:51:47;18.80;99.90
27162;DHT22;54464;50.558;9.704;2022-08-01T03:54:17;18.80;99.90
27162;DHT22;54464;50.558;9.704;2022-08-01T03:56:47;18.80;99.90
27162;DHT22;54464;50.558;9.704;2022-08-01T03:59:15;18.80;99.90
27162;DHT22;54464;50.558;9.704;2022-08-01T04:01:41;18.80;99.90
27162;DHT22;54464;50.558;9.704;2022-08-01T04:04:08;18.80;99.90
27162;DHT22;54464;50.558;9.704;2022-08-01T04:06:37;18.90;99.90
27162;DHT22;54464;50.558;9.704;2022-08-01T04:09:04;18.80;99.90
27162;DHT22;54464;50.558;9.704;2022-08-01T04:11:29;18.80;99.90
27162;DHT22;54464;50.558;9.704;2022-08-01T04:13:55;18.80;99.90
27162;DHT22;54464;50.558;9.704;2022-08-01T04:16:21;18.90;99.90
27162;DHT22;54464;50.558;9.704;2022-08-01T04:18:47;18.90;99.90
27162;DHT22;54464;50.558;9.704;2022-08-01T04:21:14;18.90;99.90
27162;DHT22;54464;50.558;9.704;2022-08-01T04:23:44;18.80;99.90
27162;DHT22;54464;50.558;9.704;2022-08-01T04:26:12;18.80;99.90
27162;DHT22;54464;50.558;9.704;2022-08-01T04:28:40;18.80;99.90
27162;DHT22;54464;50.558;9.704;2022-08-01T04:31:08;18.80;99.90
27162;DHT22;54464;50.558;9.704;2022-08-01T04:33:40;18.70;99.90
27162;DHT22;54464;50.558;9.704;2022-08-01T04:36:09;18.70;99.90
27162;DHT22;54464;50.558;9.704;2022-08-01T04:38:36;18.70;99.90
27162;DHT22;54464;50.558;9.704;2022-08-01T04:41:03;18.70;99.90
27162;DHT22;54464;50.558;9.704;2022-08-01T04:43:32;18.70;99.90
27162;DHT22;54464;50.558;9.704;2022-08-01T04:45:58;18.70;99.90
27162;DHT22;54464;50.558;9.704;2022-08-01T04:48:25;18.70;99.90
27162;DHT22;54464;50.558;9.704;2022-08-01T04:50:51;18.70;99.90
27162;DHT22;54464;50.558;9.704;2022-08-01T04:53:19;18.70;99.90
27162;DHT22;54464;50.558;9.704;2022-08-01T04:55:47;18.70;99.90
27162;DHT22;54464;50.558;9.704;2022-08-01T04:58:14;18.70;99.90
27162;DHT22;54464;50.558;9.704;2022-08-01T05:00:41;18.70;99.90
27162;DHT22;54464;50.558;9.704;2022-08-01T05:03:06;18.70;99.90
27162;DHT22;54464;50.558;9.704;2022-08-01T05:05:32;18.70;99.90
27162;DHT22;54464;50.558;9.704;2022-08-01T05:07:58;18.80;99.90
27162;DHT22;54464;50.558;9.704;2022-08-01T05:10:24;18.80;99.90
27162;DHT22;54464;50.558;9.704;2022-08-01T05:12:51;18.80;99.90
27162;DHT22;54464;50.558;9.704;2022-08-01T05:15:17;18.90;99.90
27162;DHT22;54464;50.558;9.704;2022-08-01T05:17:43;19.00;99.90
27162;DHT22;54464;50.558;9.704;2022-08-01T05:20:09;19.00;99.90
27162;DHT22;54464;50.558;9.704;2022-08-01T05:22:35;19.00;99.90
27162;DHT22;54464;50.558;9.704;2022-08-01T05:25:01;19.10;99.90
27162;DHT22;54464;50.558;9.704;2022-08-01T05:27:26;19.10;99.90
27162;DHT22;54464;50.558;9.704;2022-08-01T05:29:52;19.10;99.90
27162;DHT22;54464;50.558;9.704;2022-08-01T05:32:18;19.20;99.90
27162;DHT22;54464;50.558;9.704;2022-08-01T05:34:44;19.20;99.90
27162;DHT22;54464;50.558;9.704;2022-08-01T05:37:09;19.20;99.90
27162;DHT22;54464;50.558;9.704;2022-08-01T05:39:36;19.20;99.90
27162;DHT22;54464;50.558;9.704;2022-08-01T05:42:01;19.20;99.90
27162;DHT22;54464;50.558;9.704;2022-08-01T05:44:27;19.20;99.90
27162;DHT22;54464;50.558;9.704;2022-08-01T05:46:53;19.20;99.90
27162;DHT22;54464;50.558;9.704;2022-08-01T05:49:19;19.20;99.90
27162;DHT22;54464;50.558;9.704;2022-08-01T05:51:44;19.20;99.90
27162;DHT22;54464;50.558;9.704;2022-08-01T05:54:10;19.30;99.90
27162;DHT22;54464;50.558;9.704;2022-08-01T05:56:36;19.20;99.90
27162;DHT22;54464;50.558;9.704;2022-08-01T05:59:02;19.20;99.90
27162;DHT22;54464;50.558;9.704;2022-08-01T06:01:27;19.20;99.90
27162;DHT22;54464;50.558;9.704;2022-08-01T06:03:53;19.20;99.90
27162;DHT22;54464;50.558;9.704;2022-08-01T06:06:20;19.20;99.90
27162;DHT22;54464;50.558;9.704;2022-08-01T06:08:46;19.30;99.90
27162;DHT22;54464;50.558;9.704;2022-08-01T06:11:12;19.30;99.90
27162;DHT22;54464;50.558;9.704;2022-08-01T06:13:38;19.30;99.90
27162;DHT22;54464;50.558;9.704;2022-08-01T06:16:03;19.30;99.90
27162;DHT22;54464;50.558;9.704;2022-08-01T06:18:44;19.40;99.90
27162;DHT22;54464;50.558;9.704;2022-08-01T06:21:10;19.40;99.90
27162;DHT22;54464;50.558;9.704;2022-08-01T06:23:36;19.50;99.90
27162;DHT22;54464;50.558;9.704;2022-08-01T06:26:02;19.50;99.90
27162;DHT22;54464;50.558;9.704;2022-08-01T06:28:28;19.50;99.90
27162;DHT22;54464;50.558;9.704;2022-08-01T06:30:54;19.50;99.90
27162;DHT22;54464;50.558;9.704;2022-08-01T06:33:20;19.40;99.90
27162;DHT22;54464;50.558;9.704;2022-08-01T06:35:46;19.50;99.90
27162;DHT22;54464;50.558;9.704;2022-08-01T06:38:11;19.60;99.90
27162;DHT22;54464;50.558;9.704;2022-08-01T06:40:37;19.60;99.90
27162;DHT22;54464;50.558;9.704;2022-08-01T06:43:06;19.70;99.90
27162;DHT22;54464;50.558;9.704;2022-08-01T06:45:33;19.70;99.90
27162;DHT22;54464;50.558;9.704;2022-08-01T06:47:58;19.70;99.90
27162;DHT22;54464;50.558;9.704;2022-08-01T06:50:24;19.70;99.90
27162;DHT22;54464;50.558;9.704;2022-08-01T06:52:50;19.70;99.90
27162;DHT22;54464;50.558;9.704;2022-08-01T06:55:15;19.70;99.90
27162;DHT22;54464;50.558;9.704;2022-08-01T06:57:51;19.80;99.90
27162;DHT22;54464;50.558;9.704;2022-08-01T07:00:20;19.90;99.90
27162;DHT22;54464;50.558;9.704;2022-08-01T07:02:53;19.90;99.90
27162;DHT22;54464;50.558;9.704;2022-08-01T07:05:19;19.90;99.90
27162;DHT22;54464;50.558;9.704;2022-08-01T07:07:45;19.80;99.90
27162;DHT22;54464;50.558;9.704;2022-08-01T07:10:11;19.90;99.90
27162;DHT22;54464;50.558;9.704;2022-08-01T07:12:37;19.80;99.90
27162;DHT22;54464;50.558;9.704;2022-08-01T07:15:10;19.90;99.90
27162;DHT22;54464;50.558;9.704;2022-08-01T07:17:38;19.90;99.90
27162;DHT22;54464;50.558;9.704;2022-08-01T07:20:05;20.00;99.90
27162;DHT22;54464;50.558;9.704;2022-08-01T07:22:34;20.00;99.90
27162;DHT22;54464;50.558;9.704;2022-08-01T07:25:00;20.00;99.90
27162;DHT22;54464;50.558;9.704;2022-08-01T07:27:25;19.90;99.90
27162;DHT22;54464;50.558;9.704;2022-08-01T07:29:51;19.90;99.90
27162;DHT22;54464;50.558;9.704;2022-08-01T07:32:16;20.00;99.90
27162;DHT22;54464;50.558;9.704;2022-08-01T07:34:42;20.00;99.90
27162;DHT22;54464;50.558;9.704;2022-08-01T07:37:08;20.10;99.90
27162;DHT22;54464;50.558;9.704;2022-08-01T07:39:33;20.10;99.90
27162;DHT22;54464;50.558;9.704;2022-08-01T07:41:59;20.20;99.90
27162;DHT22;54464;50.558;9.704;2022-08-01T07:44:25;20.30;99.90
27162;DHT22;54464;50.558;9.704;2022-08-01T07:46:50;20.30;99.90
27162;DHT22;54464;50.558;9.704;2022-08-01T07:49:16;20.40;99.90
27162;DHT22;54464;50.558;9.704;2022-08-01T07:51:42;20.40;99.90
27162;DHT22;54464;50.558;9.704;2022-08-01T07:54:07;20.50;99.90
27162;DHT22;54464;50.558;9.704;2022-08-01T07:56:33;20.60;99.90
27162;DHT22;54464;50.558;9.704;2022-08-01T07:58:59;20.60;99.90
27162;DHT22;54464;50.558;9.704;2022-08-01T08:01:24;20.80;99.90
27162;DHT22;54464;50.558;9.704;2022-08-01T08:03:50;20.70;99.90
27162;DHT22;54464;50.558;9.704;2022-08-01T08:06:16;20.70;99.90
27162;DHT22;54464;50.558;9.704;2022-08-01T08:08:41;20.70;99.90
27162;DHT22;54464;50.558;9.704;2022-08-01T08:11:07;20.60;99.90
27162;DHT22;54464;50.558;9.704;2022-08-01T08:13:33;20.60;99.90
27162;DHT22;54464;50.558;9.704;2022-08-01T08:15:58;20.60;99.90
27162;DHT22;54464;50.558;9.704;2022-08-01T08:18:25;20.70;99.90
27162;DHT22;54464;50.558;9.704;2022-08-01T08:20:51;20.70;99.90
27162;DHT22;54464;50.558;9.704;2022-08-01T08:23:16;20.90;99.90
27162;DHT22;54464;50.558;9.704;2022-08-01T08:26:00;21.00;99.90
27162;DHT22;54464;50.558;9.704;2022-08-01T08:28:26;21.00;99.90
27162;DHT22;54464;50.558;9.704;2022-08-01T08:30:52;21.10;99.90
27162;DHT22;54464;50.558;9.704;2022-08-01T08:33:20;21.10;99.90
27162;DHT22;54464;50.558;9.704;2022-08-01T08:35:45;21.10;99.90
27162;DHT22;54464;50.558;9.704;2022-08-01T08:38:11;21.00;99.90
27162;DHT22;54464;50.558;9.704;2022-08-01T08:40:37;21.00;99.90
27162;DHT22;54464;50.558;9.704;2022-08-01T08:43:04;21.00;99.90
27162;DHT22;54464;50.558;9.704;2022-08-01T08:45:31;21.10;99.90
27162;DHT22;54464;50.558;9.704;2022-08-01T08:47:57;21.10;99.90
27162;DHT22;54464;50.558;9.704;2022-08-01T08:50:23;21.10;99.90
27162;DHT22;54464;50.558;9.704;2022-08-01T08:52:51;21.30;99.90
27162;DHT22;54464;50.558;9.704;2022-08-01T08:55:17;21.50;99.90
27162;DHT22;54464;50.558;9.704;2022-08-01T08:57:44;21.60;99.90
27162;DHT22;54464;50.558;9.704;2022-08-01T09:00:11;21.80;99.90
27162;DHT22;54464;50.558;9.704;2022-08-01T09:02:42;21.80;99.90
27162;DHT22;54464;50.558;9.704;2022-08-01T09:05:09;21.90;99.90
27162;DHT22;54464;50.558;9.704;2022-08-01T09:07:35;21.80;99.90
27162;DHT22;54464;50.558;9.704;2022-08-01T09:10:01;21.70;99.90
27162;DHT22;54464;50.558;9.704;2022-08-01T09:12:27;21.70;99.90
27162;DHT22;54464;50.558;9.704;2022-08-01T09:14:55;21.60;99.90
27162;DHT22;54464;50.558;9.704;2022-08-01T09:17:21;21.70;99.90
27162;DHT22;54464;50.558;9.704;2022-08-01T09:19:50;21.60;99.90
27162;DHT22;54464;50.558;9.704;2022-08-01T09:22:21;21.70;99.90
27162;DHT22;54464;50.558;9.704;2022-08-01T09:25:17;21.70;99.90
27162;DHT22;54464;50.558;9.704;2022-08-01T09:27:43;21.80;99.90
27162;DHT22;54464;50.558;9.704;2022-08-01T09:30:14;21.90;99.90
27162;DHT22;54464;50.558;9.704;2022-08-01T09:32:57;22.00;99.90
27162;DHT22;54464;50.558;9.704;2022-08-01T09:35:34;22.10;99.90
27162;DHT22;54464;50.558;9.704;2022-08-01T09:40:55;22.10;99.90
27162;DHT22;54464;50.558;9.704;2022-08-01T09:43:24;22.00;99.90
27162;DHT22;54464;50.558;9.704;2022-08-01T09:45:50;22.00;99.90
27162;DHT22;54464;50.558;9.704;2022-08-01T09:48:17;22.10;99.90
27162;DHT22;54464;50.558;9.704;2022-08-01T09:50:45;22.20;99.90
27162;DHT22;54464;50.558;9.704;2022-08-01T09:53:15;22.30;99.90
27162;DHT22;54464;50.558;9.704;2022-08-01T09:55:50;22.30;99.90
27162;DHT22;54464;50.558;9.704;2022-08-01T09:58:20;22.40;99.90
27162;DHT22;54464;50.558;9.704;2022-08-01T10:00:58;22.40;99.90
27162;DHT22;54464;50.558;9.704;2022-08-01T10:03:26;22.50;99.90
27162;DHT22;54464;50.558;9.704;2022-08-01T10:05:53;22.60;99.90
27162;DHT22;54464;50.558;9.704;2022-08-01T10:08:19;22.60;98.70
27162;DHT22;54464;50.558;9.704;2022-08-01T10:11:07;22.70;98.80
27162;DHT22;54464;50.558;9.704;2022-08-01T10:13:33;23.00;99.20
27162;DHT22;54464;50.558;9.704;2022-08-01T10:16:01;23.30;98.30
27162;DHT22;54464;50.558;9.704;2022-08-01T10:18:28;23.60;98.20
27162;DHT22;54464;50.558;9.704;2022-08-01T10:20:57;23.60;98.40
27162;DHT22;54464;50.558;9.704;2022-08-01T10:23:27;23.70;98.50
27162;DHT22;54464;50.558;9.704;2022-08-01T10:25:58;24.10;97.80
27162;DHT22;54464;50.558;9.704;2022-08-01T10:28:25;24.50;96.00
27162;DHT22;54464;50.558;9.704;2022-08-01T10:30:51;24.80;94.00
27162;DHT22;54464;50.558;9.704;2022-08-01T10:33:17;25.10;94.30
27162;DHT22;54464;50.558;9.704;2022-08-01T10:35:45;25.30;93.90
27162;DHT22;54464;50.558;9.704;2022-08-01T10:38:11;25.40;92.90
27162;DHT22;54464;50.558;9.704;2022-08-01T10:40:37;25.20;93.80
27162;DHT22;54464;50.558;9.704;2022-08-01T10:43:03;24.90;94.10
27162;DHT22;54464;50.558;9.704;2022-08-01T10:45:30;24.80;94.70
27162;DHT22;54464;50.558;9.704;2022-08-01T10:50:35;24.40;96.40
27162;DHT22;54464;50.558;9.704;2022-08-01T10:53:17;24.20;97.10
27162;DHT22;54464;50.558;9.704;2022-08-01T10:58:29;23.70;98.50
27162;DHT22;54464;50.558;9.704;2022-08-01T11:03:40;24.30;97.60
27162;DHT22;54464;50.558;9.704;2022-08-01T11:06:06;24.70;96.50
27162;DHT22;54464;50.558;9.704;2022-08-01T11:08:40;25.30;96.30
27162;DHT22;54464;50.558;9.704;2022-08-01T11:11:08;26.30;94.40
27162;DHT22;54464;50.558;9.704;2022-08-01T11:16:39;26.60;92.50
27162;DHT22;54464;50.558;9.704;2022-08-01T11:19:05;26.50;92.80
27162;DHT22;54464;50.558;9.704;2022-08-01T11:27:28;25.50;94.60
27162;DHT22;54464;50.558;9.704;2022-08-01T11:30:21;24.90;95.10
27162;DHT22;54464;50.558;9.704;2022-08-01T11:32:49;24.70;95.50
27162;DHT22;54464;50.558;9.704;2022-08-01T11:35:16;24.50;95.80
27162;DHT22;54464;50.558;9.704;2022-08-01T11:37:41;24.30;96.50
27162;DHT22;54464;50.558;9.704;2022-08-01T11:40:25;24.70;95.90
27162;DHT22;54464;50.558;9.704;2022-08-01T11:45:52;26.10;92.10
27162;DHT22;54464;50.558;9.704;2022-08-01T11:48:27;26.60;92.40
27162;DHT22;54464;50.558;9.704;2022-08-01T11:50:57;26.60;92.20
27162;DHT22;54464;50.558;9.704;2022-08-01T11:53:23;26.20;93.10
27162;DHT22;54464;50.558;9.704;2022-08-01T11:55:53;25.70;94.30
27162;DHT22;54464;50.558;9.704;2022-08-01T11:58:24;25.70;94.30
27162;DHT22;54464;50.558;9.704;2022-08-01T12:00:55;25.60;94.60
27162;DHT22;54464;50.558;9.704;2022-08-01T12:03:26;25.70;94.20
27162;DHT22;54464;50.558;9.704;2022-08-01T12:05:53;26.20;92.20
27162;DHT22;54464;50.558;9.704;2022-08-01T12:08:30;26.90;90.10
27162;DHT22;54464;50.558;9.704;2022-08-01T12:10:58;27.60;85.40
27162;DHT22;54464;50.558;9.704;2022-08-01T12:13:25;27.90;83.50
27162;DHT22;54464;50.558;9.704;2022-08-01T12:15:50;28.10;82.20
27162;DHT22;54464;50.558;9.704;2022-08-01T12:18:16;28.10;84.00
27162;DHT22;54464;50.558;9.704;2022-08-01T12:20:44;27.60;84.50
27162;DHT22;54464;50.558;9.704;2022-08-01T12:23:15;27.40;84.40
27162;DHT22;54464;50.558;9.704;2022-08-01T12:25:41;27.10;85.40
27162;DHT22;54464;50.558;9.704;2022-08-01T12:28:10;26.60;86.30
27162;DHT22;54464;50.558;9.704;2022-08-01T12:30:38;26.00;88.60
27162;DHT22;54464;50.558;9.704;2022-08-01T12:33:06;25.80;90.30
27162;DHT22;54464;50.558;9.704;2022-08-01T12:35:33;25.70;90.50
27162;DHT22;54464;50.558;9.704;2022-08-01T12:38:02;25.70;90.40
27162;DHT22;54464;50.558;9.704;2022-08-01T12:40:30;25.70;89.90
27162;DHT22;54464;50.558;9.704;2022-08-01T12:43:04;25.60;90.00
27162;DHT22;54464;50.558;9.704;2022-08-01T12:45:44;25.50;89.00
27162;DHT22;54464;50.558;9.704;2022-08-01T12:48:12;25.40;89.70
27162;DHT22;54464;50.558;9.704;2022-08-01T12:50:41;25.30;90.30
27162;DHT22;54464;50.558;9.704;2022-08-01T12:53:08;25.30;90.30
27162;DHT22;54464;50.558;9.704;2022-08-01T12:55:47;25.40;90.50
27162;DHT22;54464;50.558;9.704;2022-08-01T12:58:14;25.60;91.30
27162;DHT22;54464;50.558;9.704;2022-08-01T13:00:43;26.40;89.60
27162;DHT22;54464;50.558;9.704;2022-08-01T13:03:18;27.10;86.90
27162;DHT22;54464;50.558;9.704;2022-08-01T13:05:55;27.40;84.70
27162;DHT22;54464;50.558;9.704;2022-08-01T13:08:29;27.50;85.30
27162;DHT22;54464;50.558;9.704;2022-08-01T13:11:06;27.10;84.40
27162;DHT22;54464;50.558;9.704;2022-08-01T13:13:44;26.70;85.40
27162;DHT22;54464;50.558;9.704;2022-08-01T13:16:12;26.50;86.30
27162;DHT22;54464;50.558;9.704;2022-08-01T13:18:38;26.50;86.30
27162;DHT22;54464;50.558;9.704;2022-08-01T13:21:11;26.30;86.80
27162;DHT22;54464;50.558;9.704;2022-08-01T13:23:38;26.20;89.40
27162;DHT22;54464;50.558;9.704;2022-08-01T13:26:05;26.30;85.70
27162;DHT22;54464;50.558;9.704;2022-08-01T13:28:31;26.30;87.00
27162;DHT22;54464;50.558;9.704;2022-08-01T13:31:04;26.10;88.20
27162;DHT22;54464;50.558;9.704;2022-08-01T13:33:46;26.00;90.20
27162;DHT22;54464;50.558;9.704;2022-08-01T13:36:12;26.00;89.40
27162;DHT22;54464;50.558;9.704;2022-08-01T13:38:39;26.00;87.80
27162;DHT22;54464;50.558;9.704;2022-08-01T13:41:23;25.90;86.90
27162;DHT22;54464;50.558;9.704;2022-08-01T13:43:49;25.80;87.90
27162;DHT22;54464;50.558;9.704;2022-08-01T13:46:15;25.70;88.30
27162;DHT22;54464;50.558;9.704;2022-08-01T13:48:41;25.80;89.00
27162;DHT22;54464;50.558;9.704;2022-08-01T13:51:07;25.70;88.90
27162;DHT22;54464;50.558;9.704;2022-08-01T13:53:32;25.70;89.40
27162;DHT22;54464;50.558;9.704;2022-08-01T13:55:58;25.70;89.20
27162;DHT22;54464;50.558;9.704;2022-08-01T13:58:24;25.80;89.30
27162;DHT22;54464;50.558;9.704;2022-08-01T14:00:50;25.70;89.60
27162;DHT22;54464;50.558;9.704;2022-08-01T14:03:16;25.60;89.90
27162;DHT22;54464;50.558;9.704;2022-08-01T14:05:45;25.60;90.00
27162;DHT22;54464;50.558;9.704;2022-08-01T14:08:11;25.40;90.00
27162;DHT22;54464;50.558;9.704;2022-08-01T14:10:36;25.30;90.70
27162;DHT22;54464;50.558;9.704;2022-08-01T14:13:02;25.20;91.10
27162;DHT22;54464;50.558;9.704;2022-08-01T14:15:28;25.10;91.60
27162;DHT22;54464;50.558;9.704;2022-08-01T14:17:54;25.10;91.50
27162;DHT22;54464;50.558;9.704;2022-08-01T14:20:20;25.10;91.80
27162;DHT22;54464;50.558;9.704;2022-08-01T14:22:46;25.20;91.60
27162;DHT22;54464;50.558;9.704;2022-08-01T14:25:12;25.20;91.70
27162;DHT22;54464;50.558;9.704;2022-08-01T14:27:37;25.30;91.80
27162;DHT22;54464;50.558;9.704;2022-08-01T14:30:05;25.40;91.70
27162;DHT22;54464;50.558;9.704;2022-08-01T14:32:32;25.80;91.50
27162;DHT22;54464;50.558;9.704;2022-08-01T14:34:59;26.00;91.00
27162;DHT22;54464;50.558;9.704;2022-08-01T14:37:25;26.30;90.50
27162;DHT22;54464;50.558;9.704;2022-08-01T14:39:50;26.50;90.30
27162;DHT22;54464;50.558;9.704;2022-08-01T14:42:16;26.50;88.70
27162;DHT22;54464;50.558;9.704;2022-08-01T14:44:42;26.40;89.20
27162;DHT22;54464;50.558;9.704;2022-08-01T14:47:07;26.30;89.40
27162;DHT22;54464;50.558;9.704;2022-08-01T14:49:33;26.10;89.20
27162;DHT22;54464;50.558;9.704;2022-08-01T14:51:59;25.90;90.00
27162;DHT22;54464;50.558;9.704;2022-08-01T14:54:24;25.70;90.90
27162;DHT22;54464;50.558;9.704;2022-08-01T14:56:50;25.70;90.70
27162;DHT22;54464;50.558;9.704;2022-08-01T14:59:18;25.60;90.70
27162;DHT22;54464;50.558;9.704;2022-08-01T15:01:44;25.70;90.70
27162;DHT22;54464;50.558;9.704;2022-08-01T15:04:09;25.70;91.10
27162;DHT22;54464;50.558;9.704;2022-08-01T15:06:35;25.80;91.60
27162;DHT22;54464;50.558;9.704;2022-08-01T15:09:01;25.70;90.60
27162;DHT22;54464;50.558;9.704;2022-08-01T15:11:27;25.70;90.40
27162;DHT22;54464;50.558;9.704;2022-08-01T15:13:52;25.70;90.20
27162;DHT22;54464;50.558;9.704;2022-08-01T15:16:37;25.70;90.40
27162;DHT22;54464;50.558;9.704;2022-08-01T15:19:03;25.70;90.10
27162;DHT22;54464;50.558;9.704;2022-08-01T15:21:29;25.60;90.50
27162;DHT22;54464;50.558;9.704;2022-08-01T15:23:55;25.60;90.10
27162;DHT22;54464;50.558;9.704;2022-08-01T15:26:21;25.60;90.10
27162;DHT22;54464;50.558;9.704;2022-08-01T15:28:46;25.60;90.00
27162;DHT22;54464;50.558;9.704;2022-08-01T15:31:12;25.70;90.00
27162;DHT22;54464;50.558;9.704;2022-08-01T15:33:38;25.80;90.10
27162;DHT22;54464;50.558;9.704;2022-08-01T15:36:04;26.00;89.50
27162;DHT22;54464;50.558;9.704;2022-08-01T15:38:30;26.10;89.40
27162;DHT22;54464;50.558;9.704;2022-08-01T15:40:55;26.20;90.00
27162;DHT22;54464;50.558;9.704;2022-08-01T15:43:21;26.30;90.10
27162;DHT22;54464;50.558;9.704;2022-08-01T15:45:47;26.30;88.30
27162;DHT22;54464;50.558;9.704;2022-08-01T15:48:13;26.20;86.60
27162;DHT22;54464;50.558;9.704;2022-08-01T15:50:39;26.20;87.00
27162;DHT22;54464;50.558;9.704;2022-08-01T15:53:05;26.10;88.40
27162;DHT22;54464;50.558;9.704;2022-08-01T15:55:31;25.90;87.50
27162;DHT22;54464;50.558;9.704;2022-08-01T15:57:57;25.90;88.30
27162;DHT22;54464;50.558;9.704;2022-08-01T16:00:22;25.90;88.20
27162;DHT22;54464;50.558;9.704;2022-08-01T16:02:48;25.80;89.10
27162;DHT22;54464;50.558;9.704;2022-08-01T16:05:14;25.70;89.90
27162;DHT22;54464;50.558;9.704;2022-08-01T16:07:39;25.60;88.90
27162;DHT22;54464;50.558;9.704;2022-08-01T16:10:05;25.60;90.50
27162;DHT22;54464;50.558;9.704;2022-08-01T16:12:31;25.50;90.90